createdAt,value
2023-06-15T00:00:15.776Z,99152.02
2023-06-15T00:01:07.526Z,99151.78
2023-06-15T00:01:47.984Z,99153.67
2023-06-15T00:02:19.869Z,99150.80
2023-06-15T00:02:52.088Z,99152.17
2023-06-15T00:03:24.271Z,99151.69
2023-06-15T00:03:56.568Z,99151.58
2023-06-15T00:04:28.592Z,99150.73
2023-06-15T00:05:00.890Z,99148.70
2023-06-15T00:05:32.676Z,99152.15
2023-06-15T00:06:04.633Z,99149.52
2023-06-15T00:06:36.549Z,99151.17
2023-06-15T00:07:08.437Z,99150.19
2023-06-15T00:07:40.256Z,99151.36
2023-06-15T00:08:12.115Z,99151.82
2023-06-15T00:08:43.940Z,99150.11
2023-06-15T00:09:16.369Z,99150.27
2023-06-15T00:09:48.264Z,99148.52
2023-06-15T00:10:20.515Z,99149.13
2023-06-15T00:10:52.418Z,99148.98
2023-06-15T00:11:24.283Z,99146.95
2023-06-15T00:11:56.095Z,99148.86
2023-06-15T00:12:28.086Z,99149.63
2023-06-15T00:13:00.052Z,99148.02
2023-06-15T00:13:32.404Z,99146.34
2023-06-15T00:14:04.353Z,99148.70
2023-06-15T00:14:37.617Z,99146.55
2023-06-15T00:15:10.952Z,99146.42
2023-06-15T00:15:42.813Z,99146.33
2023-06-15T00:16:15.824Z,99144.27
2023-06-15T00:16:48.666Z,99146.33
2023-06-15T00:17:22.264Z,99143.73
2023-06-15T00:17:54.975Z,99146.90
2023-06-15T00:18:26.950Z,99144.23
2023-06-15T00:18:59.799Z,99143.51
2023-06-15T00:19:31.795Z,99142.12
2023-06-15T00:20:10.855Z,99142.68
2023-06-15T00:20:42.685Z,99143.17
2023-06-15T00:21:16.144Z,99142.36
2023-06-15T00:21:48.915Z,99141.67
2023-06-15T00:22:20.848Z,99138.21
2023-06-15T00:22:52.741Z,99141.34
2023-06-15T00:23:28.481Z,99138.80
2023-06-15T00:24:00.618Z,99139.77
2023-06-15T00:24:32.696Z,99138.17
2023-06-15T00:25:06.262Z,99137.91
2023-06-15T00:25:38.423Z,99138.64
2023-06-15T00:26:10.372Z,99139.84
2023-06-15T00:26:43.500Z,99140.05
2023-06-15T00:27:15.718Z,99139.71
2023-06-15T00:27:47.704Z,99141.50
2023-06-15T00:28:19.547Z,99141.10
2023-06-15T00:28:51.411Z,99141.14
2023-06-15T00:29:23.240Z,99141.38
2023-06-15T00:29:55.176Z,99144.30
2023-06-15T00:30:27.516Z,99142.30
2023-06-15T00:31:01.026Z,99143.56
2023-06-15T00:31:34.407Z,99142.83
2023-06-15T00:32:07.162Z,99143.03
2023-06-15T00:32:39.362Z,99146.00
2023-06-15T00:33:11.600Z,99144.77
2023-06-15T00:33:43.682Z,99147.16
2023-06-15T00:34:15.704Z,99144.73
2023-06-15T00:34:47.498Z,99146.58
2023-06-15T00:35:19.626Z,99148.48
2023-06-15T00:35:51.757Z,99149.04
2023-06-15T00:36:23.654Z,99146.17
2023-06-15T00:36:55.554Z,99148.77
2023-06-15T00:37:27.585Z,99149.65
2023-06-15T00:37:59.534Z,99149.95
2023-06-15T00:38:31.377Z,99148.20
2023-06-15T00:39:03.500Z,99148.69
2023-06-15T00:39:35.566Z,99150.27
2023-06-15T00:40:08.340Z,99149.95
2023-06-15T00:40:40.466Z,99150.83
2023-06-15T00:41:12.769Z,99152.38
2023-06-15T00:41:44.901Z,99150.02
2023-06-15T00:42:16.824Z,99151.20
2023-06-15T00:42:48.922Z,99154.27
2023-06-15T00:43:20.897Z,99154.60
2023-06-15T00:43:53.617Z,99153.05
2023-06-15T00:44:25.433Z,99154.80
2023-06-15T00:44:57.617Z,99154.40
2023-06-15T00:45:29.545Z,99152.53
2023-06-15T00:46:02.053Z,99155.04
2023-06-15T00:46:35.315Z,99152.49
2023-06-15T00:47:07.860Z,99152.58
2023-06-15T00:47:42.508Z,99155.52
2023-06-15T00:48:15.777Z,99152.52
2023-06-15T00:48:48.072Z,99152.98
2023-06-15T00:49:22.241Z,99152.05
2023-06-15T00:49:54.209Z,99157.64
2023-06-15T00:50:30.489Z,99154.27
2023-06-15T00:51:02.381Z,99158.11
2023-06-15T00:51:35.480Z,99157.46
2023-06-15T00:52:08.634Z,99157.13
2023-06-15T00:52:43.848Z,99155.80
2023-06-15T00:53:15.839Z,99156.88
2023-06-15T00:53:48.530Z,99157.26
2023-06-15T00:54:24.249Z,99155.81
2023-06-15T00:54:56.270Z,99155.64
2023-06-15T00:55:28.105Z,99155.39
2023-06-15T00:56:00.331Z,99154.63
2023-06-15T00:56:32.367Z,99155.80
2023-06-15T00:57:05.078Z,99153.93
2023-06-15T00:57:36.966Z,99155.23
2023-06-15T00:58:10.097Z,99155.06
2023-06-15T00:58:42.229Z,99153.77
2023-06-15T00:59:14.620Z,99156.58
2023-06-15T00:59:46.753Z,99156.25
2023-06-15T01:00:19.553Z,99155.20
2023-06-15T01:00:54.407Z,99156.58
2023-06-15T01:01:26.374Z,99156.94
2023-06-15T01:01:59.177Z,99157.83
2023-06-15T01:02:35.420Z,99154.95
2023-06-15T01:03:07.704Z,99153.97
2023-06-15T01:03:41.401Z,99154.87
2023-06-15T01:04:13.270Z,99157.59
2023-06-15T01:04:45.111Z,99156.85
2023-06-15T01:05:18.321Z,99158.77
2023-06-15T01:05:53.640Z,99156.13
2023-06-15T01:06:32.064Z,99158.35
2023-06-15T01:07:05.162Z,99158.39
2023-06-15T01:07:41.367Z,99159.16
2023-06-15T01:08:16.118Z,99159.92
2023-06-15T01:08:53.133Z,99159.77
2023-06-15T01:09:26.869Z,99159.55
2023-06-15T01:09:59.152Z,99158.98
2023-06-15T01:10:32.860Z,99162.06
2023-06-15T01:11:05.369Z,99160.40
2023-06-15T01:11:39.078Z,99158.91
2023-06-15T01:12:13.310Z,99159.56
2023-06-15T01:12:51.503Z,99160.84
2023-06-15T01:13:23.499Z,99161.45
2023-06-15T01:13:58.277Z,99160.35
2023-06-15T01:14:30.890Z,99163.27
2023-06-15T01:15:03.324Z,99161.12
2023-06-15T01:15:35.229Z,99163.10
2023-06-15T01:16:14.623Z,99161.08
2023-06-15T01:16:53.468Z,99158.55
2023-06-15T01:17:26.563Z,99159.59
2023-06-15T01:18:00.251Z,99159.65
2023-06-15T01:18:35.526Z,99161.02
2023-06-15T01:19:22.015Z,99156.80
2023-06-15T01:20:06.437Z,99154.48
2023-06-15T01:20:40.784Z,99156.39
2023-06-15T01:21:14.630Z,99155.63
2023-06-15T01:21:46.794Z,99155.70
2023-06-15T01:22:41.985Z,99153.08
2023-06-15T01:23:26.680Z,99154.34
2023-06-15T01:24:19.900Z,99158.65
2023-06-15T01:25:04.211Z,99153.05
2023-06-15T01:25:54.344Z,99152.73
2023-06-15T01:26:29.667Z,99157.05
2023-06-15T01:27:05.266Z,99155.55
2023-06-15T01:27:40.156Z,99154.55
2023-06-15T01:28:14.816Z,99154.94
2023-06-15T01:28:50.296Z,99154.45
2023-06-15T01:29:22.330Z,99154.48
2023-06-15T01:29:55.234Z,99155.26
2023-06-15T01:30:30.500Z,99154.89
2023-06-15T01:31:03.777Z,99155.63
2023-06-15T01:31:36.608Z,99152.78
2023-06-15T01:32:09.577Z,99156.27
2023-06-15T01:32:41.546Z,99151.98
2023-06-15T01:33:13.549Z,99153.44
2023-06-15T01:33:52.594Z,99152.02
2023-06-15T01:34:24.386Z,99156.56
2023-06-15T01:34:56.083Z,99155.46
2023-06-15T01:35:27.989Z,99154.49
2023-06-15T01:35:59.824Z,99152.10
2023-06-15T01:36:31.723Z,99150.80
2023-06-15T01:37:03.594Z,99155.36
2023-06-15T01:37:35.410Z,99154.00
2023-06-15T01:38:07.600Z,99153.42
2023-06-15T01:38:40.685Z,99153.59
2023-06-15T01:39:12.537Z,99152.59
2023-06-15T01:39:44.460Z,99154.20
2023-06-15T01:40:17.913Z,99154.42
2023-06-15T01:40:52.552Z,99151.48
2023-06-15T01:41:26.252Z,99154.93
2023-06-15T01:41:58.061Z,99152.80
2023-06-15T01:42:30.250Z,99156.87
2023-06-15T01:43:03.710Z,99157.42
2023-06-15T01:43:37.469Z,99155.39
2023-06-15T01:44:09.994Z,99158.30
2023-06-15T01:44:42.481Z,99157.90
2023-06-15T01:45:16.339Z,99156.59
2023-06-15T01:45:50.706Z,99155.21
2023-06-15T01:46:23.956Z,99154.61
2023-06-15T01:46:56.037Z,99159.71
2023-06-15T01:47:28.434Z,99154.29
2023-06-15T01:48:00.874Z,99155.58
2023-06-15T01:48:33.419Z,99154.16
2023-06-15T01:49:05.654Z,99153.83
2023-06-15T01:49:39.552Z,99151.77
2023-06-15T01:50:12.579Z,99152.85
2023-06-15T01:50:44.893Z,99155.48
2023-06-15T01:51:17.662Z,99154.23
2023-06-15T01:51:49.525Z,99151.84
2023-06-15T01:52:22.362Z,99150.22
2023-06-15T01:52:54.127Z,99151.80
2023-06-15T01:53:26.044Z,99150.63
2023-06-15T01:53:58.019Z,99150.16
2023-06-15T01:54:30.084Z,99151.91
2023-06-15T01:55:02.506Z,99150.38
2023-06-15T01:55:35.229Z,99154.38
2023-06-15T01:56:07.292Z,99151.84
2023-06-15T01:56:40.583Z,99148.52
2023-06-15T01:57:12.741Z,99151.31
2023-06-15T01:57:44.738Z,99151.04
2023-06-15T01:58:17.068Z,99150.35
2023-06-15T01:58:49.045Z,99154.08
2023-06-15T01:59:21.025Z,99148.03
2023-06-15T01:59:55.022Z,99147.96
2023-06-15T02:00:27.726Z,99150.86
2023-06-15T02:00:59.587Z,99147.40
2023-06-15T02:01:31.420Z,99156.98
2023-06-15T02:02:03.356Z,99152.79
2023-06-15T02:02:35.526Z,99152.83
2023-06-15T02:03:07.490Z,99154.77
2023-06-15T02:03:39.445Z,99151.85
2023-06-15T02:04:11.286Z,99151.00
2023-06-15T02:04:43.093Z,99153.30
2023-06-15T02:05:15.656Z,99151.60
2023-06-15T02:05:47.883Z,99149.66
2023-06-15T02:06:19.648Z,99149.92
2023-06-15T02:06:51.976Z,99145.27
2023-06-15T02:07:23.800Z,99149.27
2023-06-15T02:07:56.076Z,99146.89
2023-06-15T02:08:27.994Z,99149.16
2023-06-15T02:08:59.912Z,99146.89
2023-06-15T02:09:32.038Z,99148.39
2023-06-15T02:10:04.455Z,99148.87
2023-06-15T02:10:36.808Z,99147.23
2023-06-15T02:11:08.572Z,99148.13
2023-06-15T02:11:42.703Z,99151.05
2023-06-15T02:12:14.528Z,99147.38
2023-06-15T02:12:46.417Z,99147.80
2023-06-15T02:13:18.309Z,99147.34
2023-06-15T02:13:50.128Z,99146.05
2023-06-15T02:14:24.821Z,99147.89
2023-06-15T02:14:58.533Z,99147.23
2023-06-15T02:15:30.639Z,99145.91
2023-06-15T02:16:02.451Z,99144.52
2023-06-15T02:16:34.337Z,99144.84
2023-06-15T02:17:06.263Z,99143.36
2023-06-15T02:17:40.560Z,99142.34
2023-06-15T02:18:17.099Z,99145.30
2023-06-15T02:18:49.436Z,99143.56
2023-06-15T02:19:21.817Z,99144.98
2023-06-15T02:19:53.780Z,99142.45
2023-06-15T02:20:26.514Z,99143.51
2023-06-15T02:20:58.441Z,99143.59
2023-06-15T02:21:30.375Z,99142.39
2023-06-15T02:22:02.728Z,99142.91
2023-06-15T02:22:34.659Z,99143.07
2023-06-15T02:23:06.851Z,99145.50
2023-06-15T02:23:38.831Z,99147.23
2023-06-15T02:24:10.857Z,99146.52
2023-06-15T02:24:43.371Z,99146.71
2023-06-15T02:25:15.509Z,99146.85
2023-06-15T02:25:47.508Z,99148.27
2023-06-15T02:26:19.293Z,99149.20
2023-06-15T02:26:51.152Z,99148.46
2023-06-15T02:27:22.995Z,99148.92
2023-06-15T02:27:55.613Z,99147.36
2023-06-15T02:28:27.831Z,99149.05
2023-06-15T02:28:59.733Z,99148.48
2023-06-15T02:29:31.556Z,99149.87
2023-06-15T02:30:03.946Z,99147.18
2023-06-15T02:30:35.861Z,99148.88
2023-06-15T02:31:07.784Z,99146.64
2023-06-15T02:31:39.668Z,99149.07
2023-06-15T02:32:32.584Z,99146.11
2023-06-15T02:33:06.149Z,99144.64
2023-06-15T02:33:38.254Z,99148.01
2023-06-15T02:34:10.408Z,99146.76
2023-06-15T02:34:43.957Z,99145.73
2023-06-15T02:35:16.015Z,99146.02
2023-06-15T02:35:48.056Z,99146.48
2023-06-15T02:36:20.320Z,99147.27
2023-06-15T02:36:56.681Z,99147.64
2023-06-15T02:37:28.526Z,99150.69
2023-06-15T02:38:00.362Z,99148.30
2023-06-15T02:38:32.092Z,99151.58
2023-06-15T02:39:04.173Z,99151.14
2023-06-15T02:39:36.036Z,99152.45
2023-06-15T02:40:09.483Z,99154.52
2023-06-15T02:40:41.271Z,99154.98
2023-06-15T02:41:13.128Z,99155.59
2023-06-15T02:41:44.955Z,99156.04
2023-06-15T02:42:16.806Z,99157.25
2023-06-15T02:42:48.865Z,99157.98
2023-06-15T02:43:20.817Z,99156.38
2023-06-15T02:43:52.964Z,99153.28
2023-06-15T02:44:25.130Z,99153.77
2023-06-15T02:44:56.972Z,99156.05
2023-06-15T02:45:28.826Z,99157.27
2023-06-15T02:46:00.602Z,99155.52
2023-06-15T02:46:32.325Z,99154.02
2023-06-15T02:47:04.201Z,99156.74
2023-06-15T02:47:36.659Z,99154.80
2023-06-15T02:48:09.280Z,99155.30
2023-06-15T02:48:41.720Z,99157.83
2023-06-15T02:49:13.776Z,99158.36
2023-06-15T02:49:45.592Z,99155.12
2023-06-15T02:50:18.625Z,99158.07
2023-06-15T02:50:50.669Z,99155.24
2023-06-15T02:51:22.580Z,99154.47
2023-06-15T02:51:54.556Z,99157.42
2023-06-15T02:52:27.534Z,99152.38
2023-06-15T02:52:59.490Z,99156.77
2023-06-15T02:53:31.343Z,99156.23
2023-06-15T02:54:03.416Z,99153.86
2023-06-15T02:54:37.449Z,99153.25
2023-06-15T02:55:09.561Z,99155.19
2023-06-15T02:55:42.175Z,99155.15
2023-06-15T02:56:18.903Z,99155.02
2023-06-15T02:56:51.796Z,99153.55
2023-06-15T02:57:24.394Z,99155.45
2023-06-15T02:57:56.559Z,99155.01
2023-06-15T02:58:33.004Z,99156.02
2023-06-15T02:59:06.239Z,99157.77
2023-06-15T02:59:38.336Z,99157.11
2023-06-15T03:00:13.431Z,99159.91
2023-06-15T03:00:47.633Z,99155.90
2023-06-15T03:01:19.504Z,99157.60
2023-06-15T03:01:54.422Z,99160.20
2023-06-15T03:02:26.930Z,99161.38
2023-06-15T03:02:59.318Z,99159.38
2023-06-15T03:03:31.136Z,99160.45
2023-06-15T03:04:03.803Z,99161.56
2023-06-15T03:04:45.009Z,99163.75
2023-06-15T03:05:19.053Z,99160.36
2023-06-15T03:05:52.625Z,99160.00
2023-06-15T03:06:25.483Z,99161.69
2023-06-15T03:06:57.954Z,99160.11
2023-06-15T03:07:30.951Z,99160.48
2023-06-15T03:08:02.894Z,99164.08
2023-06-15T03:08:35.732Z,99163.55
2023-06-15T03:09:07.870Z,99163.27
2023-06-15T03:09:39.876Z,99164.44
2023-06-15T03:10:11.875Z,99166.54
2023-06-15T03:10:43.681Z,99164.31
2023-06-15T03:11:15.481Z,99169.70
2023-06-15T03:11:47.387Z,99166.95
2023-06-15T03:12:19.966Z,99165.04
2023-06-15T03:12:51.747Z,99166.86
2023-06-15T03:13:23.918Z,99170.66
2023-06-15T03:13:55.952Z,99169.21
2023-06-15T03:14:29.749Z,99167.92
2023-06-15T03:15:02.388Z,99166.69
2023-06-15T03:15:35.762Z,99168.33
2023-06-15T03:16:07.868Z,99167.14
2023-06-15T03:16:40.286Z,99169.65
2023-06-15T03:17:13.627Z,99169.17
2023-06-15T03:17:45.422Z,99166.55
2023-06-15T03:18:17.394Z,99163.48
2023-06-15T03:18:49.597Z,99163.04
2023-06-15T03:19:21.420Z,99163.25
2023-06-15T03:19:53.313Z,99160.73
2023-06-15T03:20:25.681Z,99164.09
2023-06-15T03:20:58.205Z,99160.50
2023-06-15T03:21:30.856Z,99160.35
2023-06-15T03:22:03.585Z,99161.13
2023-06-15T03:22:35.994Z,99160.91
2023-06-15T03:23:11.597Z,99164.12
2023-06-15T03:23:45.339Z,99159.59
2023-06-15T03:24:18.772Z,99160.48
2023-06-15T03:24:51.225Z,99157.73
2023-06-15T03:25:23.239Z,99159.23
2023-06-15T03:25:55.111Z,99158.35
2023-06-15T03:26:30.040Z,99160.66
2023-06-15T03:27:04.071Z,99157.63
2023-06-15T03:27:36.188Z,99157.79
2023-06-15T03:28:08.164Z,99160.05
2023-06-15T03:28:40.620Z,99161.20
2023-06-15T03:29:14.113Z,99164.67
2023-06-15T03:29:50.163Z,99164.09
2023-06-15T03:30:21.976Z,99163.86
2023-06-15T03:30:57.626Z,99163.75
2023-06-15T03:31:34.098Z,99162.95
2023-06-15T03:32:07.481Z,99164.20
2023-06-15T03:32:39.423Z,99163.10
2023-06-15T03:33:11.338Z,99166.88
2023-06-15T03:33:44.384Z,99163.69
2023-06-15T03:34:16.407Z,99166.62
2023-06-15T03:34:48.460Z,99167.55
2023-06-15T03:35:21.819Z,99167.80
2023-06-15T03:35:53.994Z,99166.98
2023-06-15T03:36:30.241Z,99167.39
2023-06-15T03:37:02.394Z,99170.60
2023-06-15T03:37:34.286Z,99171.54
2023-06-15T03:38:06.913Z,99173.15
2023-06-15T03:38:38.690Z,99172.15
2023-06-15T03:39:10.711Z,99174.50
2023-06-15T03:39:42.760Z,99171.48
2023-06-15T03:40:14.569Z,99175.04
2023-06-15T03:40:46.380Z,99172.66
2023-06-15T03:41:18.143Z,99174.92
2023-06-15T03:41:50.173Z,99174.95
2023-06-15T03:42:22.043Z,99177.84
2023-06-15T03:42:53.830Z,99176.35
2023-06-15T03:43:25.664Z,99174.16
2023-06-15T03:43:57.843Z,99177.54
2023-06-15T03:44:29.643Z,99178.26
2023-06-15T03:45:01.494Z,99177.25
2023-06-15T03:45:33.390Z,99180.09
2023-06-15T03:46:06.622Z,99179.27
2023-06-15T03:46:38.532Z,99178.58
2023-06-15T03:47:10.435Z,99182.26
2023-06-15T03:47:42.187Z,99183.52
2023-06-15T03:48:13.992Z,99181.10
2023-06-15T03:48:45.970Z,99184.42
2023-06-15T03:49:17.717Z,99184.42
2023-06-15T03:49:49.540Z,99181.11
2023-06-15T03:50:21.388Z,99179.63
2023-06-15T03:50:53.166Z,99180.67
2023-06-15T03:51:25.116Z,99181.28
2023-06-15T03:51:56.876Z,99180.43
2023-06-15T03:52:28.924Z,99184.75
2023-06-15T03:53:02.445Z,99180.90
2023-06-15T03:53:34.217Z,99177.93
2023-06-15T03:54:06.355Z,99180.95
2023-06-15T03:54:38.134Z,99178.13
2023-06-15T03:55:09.924Z,99179.39
2023-06-15T03:55:41.890Z,99181.16
2023-06-15T03:56:13.777Z,99180.12
2023-06-15T03:56:45.464Z,99181.35
2023-06-15T03:57:17.350Z,99181.74
2023-06-15T03:57:49.304Z,99182.30
2023-06-15T03:58:21.068Z,99183.34
2023-06-15T03:58:52.793Z,99178.12
2023-06-15T03:59:24.712Z,99181.75
2023-06-15T03:59:56.508Z,99184.33
2023-06-15T04:00:28.284Z,99184.70
2023-06-15T04:01:01.540Z,99184.11
2023-06-15T04:01:33.711Z,99181.41
2023-06-15T04:02:05.946Z,99181.76
2023-06-15T04:02:37.717Z,99181.55
2023-06-15T04:03:09.906Z,99183.05
2023-06-15T04:03:41.984Z,99180.96
2023-06-15T04:04:15.702Z,99184.23
2023-06-15T04:04:47.780Z,99185.09
2023-06-15T04:05:20.927Z,99184.29
2023-06-15T04:05:53.684Z,99185.63
2023-06-15T04:06:25.656Z,99187.70
2023-06-15T04:06:58.239Z,99184.17
2023-06-15T04:07:30.037Z,99186.09
2023-06-15T04:08:02.184Z,99187.66
2023-06-15T04:08:36.233Z,99183.98
2023-06-15T04:09:08.040Z,99185.66
2023-06-15T04:09:40.020Z,99189.13
2023-06-15T04:10:13.044Z,99189.99
2023-06-15T04:10:45.092Z,99186.80
2023-06-15T04:11:17.346Z,99188.90
2023-06-15T04:11:49.294Z,99187.83
2023-06-15T04:12:22.182Z,99188.06
2023-06-15T04:12:54.012Z,99186.02
2023-06-15T04:13:26.439Z,99185.18
2023-06-15T04:13:58.379Z,99185.31
2023-06-15T04:14:31.251Z,99188.41
2023-06-15T04:15:03.294Z,99186.56
2023-06-15T04:15:35.229Z,99190.56
2023-06-15T04:16:07.200Z,99187.15
2023-06-15T04:16:39.063Z,99189.70
2023-06-15T04:17:10.974Z,99187.56
2023-06-15T04:17:43.019Z,99188.53
2023-06-15T04:18:14.822Z,99188.86
2023-06-15T04:18:46.636Z,99191.34
2023-06-15T04:19:23.098Z,99190.53
2023-06-15T04:19:55.200Z,99193.48
2023-06-15T04:20:31.760Z,99194.16
2023-06-15T04:21:05.313Z,99193.17
2023-06-15T04:21:40.043Z,99195.35
2023-06-15T04:22:12.297Z,99193.00
2023-06-15T04:22:44.263Z,99193.23
2023-06-15T04:23:16.278Z,99194.51
2023-06-15T04:23:48.313Z,99194.21
2023-06-15T04:24:20.174Z,99196.12
2023-06-15T04:24:52.284Z,99194.34
2023-06-15T04:25:24.358Z,99193.61
2023-06-15T04:25:58.936Z,99194.71
2023-06-15T04:26:30.856Z,99191.99
2023-06-15T04:27:02.931Z,99192.34
2023-06-15T04:27:36.045Z,99195.87
2023-06-15T04:28:11.296Z,99192.46
2023-06-15T04:28:46.136Z,99197.73
2023-06-15T04:29:19.740Z,99199.61
2023-06-15T04:29:53.549Z,99198.77
2023-06-15T04:30:25.720Z,99200.09
2023-06-15T04:31:10.566Z,99199.84
2023-06-15T04:31:42.790Z,99202.24
2023-06-15T04:32:15.148Z,99204.51
2023-06-15T04:32:47.060Z,99203.29
2023-06-15T04:33:20.410Z,99202.91
2023-06-15T04:34:00.342Z,99202.34
2023-06-15T04:34:32.477Z,99203.26
2023-06-15T04:35:06.744Z,99204.29
2023-06-15T04:35:40.958Z,99208.21
2023-06-15T04:36:13.386Z,99204.23
2023-06-15T04:36:45.237Z,99206.20
2023-06-15T04:37:17.560Z,99207.83
2023-06-15T04:37:51.551Z,99209.14
2023-06-15T04:38:23.364Z,99210.33
2023-06-15T04:38:56.211Z,99208.56
2023-06-15T04:39:28.658Z,99208.61
2023-06-15T04:40:00.454Z,99211.73
2023-06-15T04:40:32.745Z,99211.46
2023-06-15T04:41:08.666Z,99216.19
2023-06-15T04:41:40.566Z,99212.30
2023-06-15T04:42:13.371Z,99211.52
2023-06-15T04:42:45.264Z,99214.20
2023-06-15T04:43:17.237Z,99211.47
2023-06-15T04:43:50.406Z,99214.23
2023-06-15T04:44:22.177Z,99212.67
2023-06-15T04:44:54.154Z,99215.20
2023-06-15T04:45:26.395Z,99215.87
2023-06-15T04:45:58.324Z,99217.50
2023-06-15T04:46:30.605Z,99216.73
2023-06-15T04:47:05.222Z,99215.66
2023-06-15T04:47:37.250Z,99218.17
2023-06-15T04:48:09.529Z,99219.97
2023-06-15T04:48:45.391Z,99221.42
2023-06-15T04:49:18.356Z,99220.06
2023-06-15T04:49:50.276Z,99221.49
2023-06-15T04:50:22.357Z,99218.98
2023-06-15T04:50:57.169Z,99221.92
2023-06-15T04:51:31.096Z,99219.72
2023-06-15T04:52:03.472Z,99220.05
2023-06-15T04:52:36.736Z,99218.52
2023-06-15T04:53:09.166Z,99219.30
2023-06-15T04:53:44.843Z,99219.98
2023-06-15T04:54:16.802Z,99223.19
2023-06-15T04:54:49.264Z,99220.18
2023-06-15T04:55:21.256Z,99222.41
2023-06-15T04:55:53.892Z,99223.70
2023-06-15T04:56:27.483Z,99227.92
2023-06-15T04:56:59.646Z,99227.48
2023-06-15T04:57:31.736Z,99228.02
2023-06-15T04:58:05.198Z,99229.23
2023-06-15T04:58:37.214Z,99229.15
2023-06-15T04:59:09.373Z,99231.71
2023-06-15T04:59:41.435Z,99232.23
2023-06-15T05:00:14.199Z,99233.25
2023-06-15T05:00:46.251Z,99231.70
2023-06-15T05:01:18.274Z,99231.62
2023-06-15T05:01:50.125Z,99236.17
2023-06-15T05:02:21.925Z,99236.61
2023-06-15T05:02:53.939Z,99236.11
2023-06-15T05:03:26.305Z,99232.39
2023-06-15T05:03:59.344Z,99234.20
2023-06-15T05:04:31.231Z,99233.73
2023-06-15T05:05:03.659Z,99237.08
2023-06-15T05:05:35.704Z,99237.15
2023-06-15T05:06:08.439Z,99237.11
2023-06-15T05:06:40.279Z,99236.14
2023-06-15T05:07:12.157Z,99239.42
2023-06-15T05:07:43.874Z,99241.67
2023-06-15T05:08:16.239Z,99240.33
2023-06-15T05:08:48.491Z,99241.74
2023-06-15T05:09:20.449Z,99239.19
2023-06-15T05:09:52.298Z,99238.53
2023-06-15T05:10:37.244Z,99242.39
2023-06-15T05:11:16.025Z,99241.59
2023-06-15T05:11:48.238Z,99242.35
2023-06-15T05:12:20.550Z,99238.77
2023-06-15T05:12:52.750Z,99239.74
2023-06-15T05:13:25.847Z,99245.56
2023-06-15T05:13:58.294Z,99243.98
2023-06-15T05:14:30.256Z,99243.66
2023-06-15T05:15:02.096Z,99248.14
2023-06-15T05:15:35.538Z,99243.59
2023-06-15T05:16:07.520Z,99245.90
2023-06-15T05:16:39.454Z,99248.23
2023-06-15T05:17:11.632Z,99250.17
2023-06-15T05:17:44.465Z,99251.19
2023-06-15T05:18:16.282Z,99250.52
2023-06-15T05:18:47.982Z,99247.98
2023-06-15T05:19:21.118Z,99251.80
2023-06-15T05:19:53.060Z,99249.52
2023-06-15T05:20:25.295Z,99250.21
2023-06-15T05:20:57.397Z,99251.58
2023-06-15T05:21:29.280Z,99254.22
2023-06-15T05:22:02.204Z,99251.59
2023-06-15T05:22:34.014Z,99251.40
2023-06-15T05:23:06.215Z,99257.73
2023-06-15T05:23:38.065Z,99255.77
2023-06-15T05:24:10.151Z,99255.52
2023-06-15T05:24:41.944Z,99257.82
2023-06-15T05:25:13.986Z,99258.15
2023-06-15T05:25:46.639Z,99257.62
2023-06-15T05:26:54.978Z,99255.44
2023-06-15T05:27:26.779Z,99258.27
2023-06-15T05:27:58.676Z,99256.65
2023-06-15T05:28:30.590Z,99258.52
2023-06-15T05:29:02.478Z,99256.33
2023-06-15T05:29:34.530Z,99259.85
2023-06-15T05:30:12.370Z,99257.38
2023-06-15T05:30:44.258Z,99257.30
2023-06-15T05:31:16.304Z,99257.71
2023-06-15T05:31:48.185Z,99255.16
2023-06-15T05:32:20.434Z,99257.52
2023-06-15T05:32:52.571Z,99256.69
2023-06-15T05:33:24.539Z,99257.21
2023-06-15T05:33:56.519Z,99255.88
2023-06-15T05:34:28.512Z,99253.34
2023-06-15T05:35:00.377Z,99253.27
2023-06-15T05:35:32.189Z,99254.84
2023-06-15T05:36:15.004Z,99256.55
2023-06-15T05:36:57.351Z,99256.37
2023-06-15T05:37:30.146Z,99255.92
2023-06-15T05:38:01.994Z,99257.42
2023-06-15T05:38:34.038Z,99259.98
2023-06-15T05:39:06.843Z,99258.89
2023-06-15T05:39:38.747Z,99258.85
2023-06-15T05:40:10.999Z,99259.74
2023-06-15T05:40:42.735Z,99259.14
2023-06-15T05:41:14.485Z,99261.17
2023-06-15T05:41:46.460Z,99260.64
2023-06-15T05:42:18.423Z,99257.83
2023-06-15T05:42:50.871Z,99256.17
2023-06-15T05:43:22.847Z,99261.66
2023-06-15T05:43:54.937Z,99261.50
2023-06-15T05:44:26.720Z,99262.73
2023-06-15T05:44:58.700Z,99260.48
2023-06-15T05:45:30.960Z,99264.10
2023-06-15T05:46:02.834Z,99262.48
2023-06-15T05:46:34.644Z,99264.87
2023-06-15T05:47:07.047Z,99260.57
2023-06-15T05:47:39.171Z,99264.67
2023-06-15T05:48:11.049Z,99265.65
2023-06-15T05:48:43.341Z,99268.53
2023-06-15T05:49:15.924Z,99266.79
2023-06-15T05:49:47.698Z,99268.88
2023-06-15T05:50:19.593Z,99270.39
2023-06-15T05:50:51.452Z,99268.31
2023-06-15T05:51:23.258Z,99269.10
2023-06-15T05:51:55.073Z,99269.54
2023-06-15T05:52:27.995Z,99268.27
2023-06-15T05:53:01.918Z,99268.33
2023-06-15T05:53:33.801Z,99267.86
2023-06-15T05:54:05.667Z,99269.79
2023-06-15T05:54:37.741Z,99265.95
2023-06-15T05:55:09.627Z,99268.48
2023-06-15T05:55:41.546Z,99268.60
2023-06-15T05:56:13.509Z,99266.90
2023-06-15T05:56:45.793Z,99269.30
2023-06-15T05:57:18.091Z,99266.28
2023-06-15T05:57:49.937Z,99270.14
2023-06-15T05:58:21.720Z,99271.64
2023-06-15T05:58:54.570Z,99268.66
2023-06-15T05:59:33.300Z,99267.36
2023-06-15T06:00:07.240Z,99269.25
2023-06-15T06:00:39.213Z,99268.83
2023-06-15T06:01:11.012Z,99266.87
2023-06-15T06:01:42.908Z,99270.48
2023-06-15T06:02:14.759Z,99270.70
2023-06-15T06:02:46.569Z,99267.65
2023-06-15T06:03:18.441Z,99267.92
2023-06-15T06:03:50.246Z,99271.62
2023-06-15T06:04:22.057Z,99268.58
2023-06-15T06:04:53.920Z,99267.20
2023-06-15T06:05:25.785Z,99269.44
2023-06-15T06:05:57.641Z,99269.21
2023-06-15T06:06:29.725Z,99272.31
2023-06-15T06:07:05.941Z,99272.02
2023-06-15T06:07:37.795Z,99271.85
2023-06-15T06:08:09.628Z,99273.19
2023-06-15T06:08:41.620Z,99273.65
2023-06-15T06:09:13.553Z,99272.31
2023-06-15T06:09:45.297Z,99273.37
2023-06-15T06:10:20.513Z,99274.30
2023-06-15T06:10:52.434Z,99275.39
2023-06-15T06:11:24.272Z,99274.05
2023-06-15T06:11:56.482Z,99274.05
2023-06-15T06:12:28.294Z,99271.89
2023-06-15T06:13:00.229Z,99271.49
2023-06-15T06:13:32.038Z,99273.30
2023-06-15T06:14:03.817Z,99273.52
2023-06-15T06:14:35.856Z,99272.98
2023-06-15T06:15:08.596Z,99276.92
2023-06-15T06:15:41.888Z,99274.58
2023-06-15T06:16:15.306Z,99276.33
2023-06-15T06:16:47.256Z,99277.87
2023-06-15T06:17:39.762Z,99275.31
2023-06-15T06:18:10.987Z,99282.33
2023-06-15T06:18:42.900Z,99281.45
2023-06-15T06:19:14.724Z,99280.52
2023-06-15T06:19:48.612Z,99282.77
2023-06-15T06:20:20.397Z,99284.32
2023-06-15T06:20:52.259Z,99285.06
2023-06-15T06:21:24.306Z,99285.83
2023-06-15T06:21:56.044Z,99283.45
2023-06-15T06:22:28.027Z,99283.63
2023-06-15T06:22:59.785Z,99285.45
2023-06-15T06:23:33.581Z,99286.34
2023-06-15T06:24:05.664Z,99285.95
2023-06-15T06:24:37.901Z,99284.60
2023-06-15T06:25:09.826Z,99287.29
2023-06-15T06:25:41.787Z,99288.21
2023-06-15T06:26:13.683Z,99288.70
2023-06-15T06:26:45.834Z,99285.82
2023-06-15T06:27:17.683Z,99286.64